createdAt,value
2019-04-21T00:01:59.574Z,11.87
2019-04-21T00:04:48.332Z,12.50
2019-04-21T00:07:26.458Z,11.67
2019-04-21T00:10:09.710Z,12.27
2019-04-21T00:15:04.738Z,13.90
2019-04-21T00:17:28.710Z,12.60
2019-04-21T00:20:15.755Z,13.00
2019-04-21T00:22:52.378Z,12.67
2019-04-21T00:25:30.921Z,13.20
2019-04-21T00:28:09.727Z,12.33
2019-04-21T00:30:44.215Z,13.80
2019-04-21T00:33:09.166Z,14.30
2019-04-21T00:35:45.106Z,12.53
2019-04-21T00:38:35.515Z,13.13
2019-04-21T00:41:13.249Z,12.80
2019-04-21T00:43:41.349Z,12.97
2019-04-21T00:46:13.560Z,13.13
2019-04-21T00:48:57.437Z,12.83
2019-04-21T00:51:42.151Z,13.20
2019-04-21T00:54:16.970Z,13.20
2019-04-21T00:56:52.637Z,14.00
2019-04-21T00:59:28.199Z,13.10
2019-04-21T01:02:00.088Z,12.47
2019-04-21T01:04:39.506Z,13.60
2019-04-21T01:07:13.278Z,13.63
2019-04-21T01:09:43.954Z,13.50
2019-04-21T01:12:31.913Z,12.67
2019-04-21T01:15:04.724Z,13.57
2019-04-21T01:17:44.816Z,13.90
2019-04-21T01:20:09.652Z,13.93
2019-04-21T01:22:29.515Z,12.80
2019-04-21T01:25:11.898Z,13.40
2019-04-21T01:27:54.098Z,13.13
2019-04-21T01:30:34.739Z,13.90
2019-04-21T01:33:16.950Z,12.57
2019-04-21T01:35:48.433Z,12.87
2019-04-21T01:38:28.842Z,12.37
2019-04-21T01:41:08.363Z,11.43
2019-04-21T01:43:33.317Z,11.87
2019-04-21T01:46:10.934Z,12.20
2019-04-21T01:48:43.699Z,13.47
2019-04-21T01:51:22.484Z,13.90
2019-04-21T01:54:22.245Z,13.93
2019-04-21T01:57:02.752Z,13.43
2019-04-21T01:59:39.587Z,11.67
2019-04-21T02:02:19.306Z,12.23
2019-04-21T02:04:57.604Z,13.27
2019-04-21T02:07:26.887Z,11.83
2019-04-21T02:10:05.137Z,11.97
2019-04-21T02:12:48.923Z,13.43
2019-04-21T02:15:38.002Z,12.37
2019-04-21T02:17:54.106Z,11.43
2019-04-21T02:20:21.793Z,12.63
2019-04-21T02:23:22.399Z,11.57
2019-04-21T02:25:44.700Z,12.20
2019-04-21T02:28:22.437Z,11.30
2019-04-21T02:41:31.176Z,10.90
2019-04-21T02:47:19.488Z,10.83
2019-04-21T02:49:32.698Z,11.17
2019-04-21T02:57:08.581Z,12.20
2019-04-21T03:00:10.148Z,13.03
2019-04-21T03:06:10.495Z,11.10
2019-04-21T03:11:17.620Z,11.77
2019-04-21T03:14:12.490Z,11.23
2019-04-21T03:16:32.977Z,11.67
2019-04-21T03:19:17.579Z,11.00
2019-04-21T03:22:39.379Z,11.40
2019-04-21T03:25:21.433Z,11.70
2019-04-21T03:27:51.231Z,11.47
2019-04-21T03:30:42.610Z,11.13
2019-04-21T03:40:37.266Z,12.00
2019-04-21T03:43:12.657Z,11.47
2019-04-21T03:45:49.218Z,11.73
2019-04-21T03:48:27.038Z,9.73
2019-04-21T03:50:56.659Z,11.77
2019-04-21T03:53:44.477Z,10.10
2019-04-21T03:58:55.867Z,10.50
2019-04-21T04:01:57.767Z,10.53
2019-04-21T04:07:49.799Z,10.30
2019-04-21T04:10:22.402Z,10.63
2019-04-21T04:12:52.540Z,11.10
2019-04-21T04:15:45.374Z,10.50
2019-04-21T04:18:04.616Z,11.80
2019-04-21T04:25:51.585Z,11.53
2019-04-21T04:31:21.475Z,11.90
2019-04-21T04:36:30.164Z,11.60
2019-04-21T04:39:25.833Z,11.43
2019-04-21T04:47:22.744Z,10.70
2019-04-21T04:52:36.215Z,9.97
2019-04-21T04:55:26.161Z,9.77
2019-04-21T05:02:56.397Z,9.53
2019-04-21T05:06:11.912Z,9.70
2019-04-21T05:08:42.381Z,9.43
2019-04-21T05:11:20.877Z,9.80
2019-04-21T05:13:50.896Z,8.80
2019-04-21T05:16:36.251Z,9.30
2019-04-21T05:24:01.319Z,9.50
2019-04-21T05:26:34.506Z,9.13
2019-04-21T05:29:10.594Z,8.80
2019-04-21T05:32:13.361Z,10.37
2019-04-21T05:34:37.399Z,8.83
2019-04-21T05:37:37.152Z,10.10
2019-04-21T05:40:15.845Z,10.10
2019-04-21T05:42:55.539Z,9.60
2019-04-21T05:45:37.309Z,9.53
2019-04-21T05:48:33.626Z,9.13
2019-04-21T05:51:02.046Z,10.00
2019-04-21T05:53:55.662Z,8.93
2019-04-21T05:56:17.448Z,9.77
2019-04-21T05:58:48.030Z,9.13
2019-04-21T06:01:33.443Z,9.47
2019-04-21T06:04:05.413Z,9.00
2019-04-21T06:06:49.791Z,8.53
2019-04-21T06:09:18.987Z,7.90
2019-04-21T06:11:55.527Z,9.00
2019-04-21T06:14:30.524Z,8.60
2019-04-21T06:17:17.522Z,9.27
2019-04-21T06:19:43.258Z,9.83
2019-04-21T06:22:13.873Z,9.80
2019-04-21T06:30:24.006Z,9.07
2019-04-21T06:32:47.152Z,9.07
2019-04-21T06:35:56.510Z,8.17
2019-04-21T06:38:19.269Z,7.60
2019-04-21T06:40:50.084Z,7.20
2019-04-21T06:43:37.718Z,7.60
2019-04-21T06:46:02.228Z,8.27
2019-04-21T06:48:44.452Z,7.80
2019-04-21T06:51:15.115Z,8.53
2019-04-21T06:53:59.373Z,8.00
2019-04-21T06:56:38.010Z,8.23
2019-04-21T06:59:06.725Z,7.80
2019-04-21T07:01:51.463Z,9.80
2019-04-21T07:04:25.280Z,7.83
2019-04-21T07:06:54.216Z,8.30
2019-04-21T07:09:31.867Z,7.60
2019-04-21T07:12:06.196Z,8.37
2019-04-21T07:14:50.046Z,8.23
2019-04-21T07:17:26.938Z,8.03
2019-04-21T07:22:36.859Z,8.10
2019-04-21T07:25:18.230Z,8.60
2019-04-21T07:27:49.052Z,9.20
2019-04-21T07:30:26.673Z,9.87
2019-04-21T07:33:09.249Z,9.07
2019-04-21T07:35:31.816Z,9.60
2019-04-21T07:38:17.992Z,8.33
2019-04-21T07:40:39.982Z,9.00
2019-04-21T07:43:13.581Z,9.37
2019-04-21T07:45:49.853Z,9.67
2019-04-21T07:48:36.142Z,8.37
2019-04-21T07:51:33.973Z,8.53
2019-04-21T07:54:10.401Z,7.70
2019-04-21T07:56:28.757Z,8.17
2019-04-21T07:59:21.247Z,7.90
2019-04-21T08:01:55.151Z,7.73
2019-04-21T08:04:49.566Z,8.10
2019-04-21T08:07:09.942Z,8.17
2019-04-21T08:09:42.657Z,7.20
2019-04-21T08:12:08.108Z,7.37
2019-04-21T08:14:50.711Z,7.40
2019-04-21T08:17:30.206Z,7.13
2019-04-21T08:20:00.571Z,7.97
2019-04-21T08:22:46.334Z,7.53
2019-04-21T08:28:26.430Z,6.47
2019-04-21T08:30:56.801Z,6.37
2019-04-21T08:33:17.538Z,6.17
2019-04-21T08:38:31.515Z,6.33
2019-04-21T08:41:01.563Z,6.50
2019-04-21T08:46:16.949Z,6.70
2019-04-21T08:48:52.574Z,6.80
2019-04-21T08:51:44.756Z,6.50
2019-04-21T08:54:05.514Z,6.50
2019-04-21T08:56:54.474Z,6.70
2019-04-21T08:59:53.371Z,5.90
2019-04-21T09:02:34.000Z,5.93
2019-04-21T09:05:09.026Z,5.53
2019-04-21T09:10:14.321Z,5.83
2019-04-21T09:12:46.614Z,5.70
2019-04-21T09:15:29.357Z,5.50
2019-04-21T09:18:00.663Z,5.67
2019-04-21T09:23:18.089Z,4.80
2019-04-21T09:25:52.258Z,4.10
2019-04-21T09:28:22.670Z,4.37
2019-04-21T09:30:52.173Z,4.13
2019-04-21T09:33:28.050Z,3.83
2019-04-21T09:36:02.665Z,3.83
2019-04-21T09:38:39.838Z,3.60
2019-04-21T09:41:15.477Z,4.10
2019-04-21T09:43:52.142Z,3.93
2019-04-21T09:46:25.429Z,4.10
2019-04-21T09:49:05.753Z,3.77
2019-04-21T09:51:37.220Z,3.90
2019-04-21T09:54:17.458Z,4.30
2019-04-21T09:56:54.013Z,3.80
2019-04-21T09:59:28.450Z,4.00
2019-04-21T10:02:08.458Z,3.40
2019-04-21T10:04:34.102Z,3.63
2019-04-21T10:07:23.617Z,3.03
2019-04-21T10:09:49.908Z,3.33
2019-04-21T10:12:23.792Z,3.73
2019-04-21T10:14:57.537Z,3.60
2019-04-21T10:17:56.230Z,3.93
2019-04-21T10:20:30.891Z,4.70
2019-04-21T10:23:07.213Z,4.93
2019-04-21T10:25:43.209Z,4.77
2019-04-21T10:28:19.025Z,4.63
2019-04-21T10:30:54.095Z,4.50
2019-04-21T10:33:30.767Z,4.47
2019-04-21T10:36:06.861Z,3.73
2019-04-21T10:38:47.745Z,4.20
2019-04-21T10:41:17.720Z,5.30
2019-04-21T10:43:51.527Z,4.83
2019-04-21T10:46:26.602Z,5.33
2019-04-21T10:49:01.096Z,5.27
2019-04-21T10:51:35.276Z,5.60
2019-04-21T10:54:09.052Z,5.43
2019-04-21T10:56:44.465Z,6.10
2019-04-21T10:59:20.448Z,4.73
2019-04-21T11:01:56.839Z,5.03
2019-04-21T11:04:36.443Z,5.33
2019-04-21T11:07:31.887Z,4.70
2019-04-21T11:10:04.461Z,5.20
2019-04-21T11:12:39.741Z,4.80
2019-04-21T11:15:14.876Z,5.30
2019-04-21T11:17:49.214Z,5.73
2019-04-21T11:20:24.780Z,5.13
2019-04-21T11:23:01.693Z,4.93
2019-04-21T11:25:37.849Z,4.53
2019-04-21T11:28:14.280Z,5.33
2019-04-21T11:30:50.972Z,4.73
2019-04-21T11:33:24.981Z,4.63
2019-04-21T11:36:01.357Z,5.37
2019-04-21T11:38:59.193Z,5.27
2019-04-21T11:41:19.132Z,5.37
2019-04-21T11:43:54.927Z,5.40
2019-04-21T11:46:29.093Z,5.37
2019-04-21T11:49:06.331Z,5.30
2019-04-21T11:51:40.786Z,5.30
2019-04-21T11:54:15.064Z,6.27
2019-04-21T11:56:49.079Z,6.20
2019-04-21T11:59:23.734Z,6.43
2019-04-21T12:01:59.423Z,5.90
2019-04-21T12:04:33.732Z,5.97
2019-04-21T12:07:09.175Z,5.87
2019-04-21T12:09:45.772Z,6.23
2019-04-21T12:12:19.377Z,5.57
2019-04-21T12:14:55.610Z,5.53
2019-04-21T12:17:30.036Z,6.00
2019-04-21T12:20:03.657Z,5.33
2019-04-21T12:22:37.484Z,5.47
2019-04-21T12:25:13.512Z,5.33
2019-04-21T12:27:47.864Z,5.77
2019-04-21T12:30:24.078Z,6.40
2019-04-21T12:33:04.348Z,6.70
2019-04-21T12:35:39.488Z,7.10
2019-04-21T12:38:17.461Z,5.50
2019-04-21T12:40:51.001Z,4.83
2019-04-21T12:43:26.578Z,5.20
2019-04-21T12:46:00.385Z,5.40
2019-04-21T12:48:34.011Z,5.00
2019-04-21T12:51:07.925Z,5.37
2019-04-21T12:53:41.738Z,5.90
2019-04-21T12:56:17.738Z,5.30
2019-04-21T12:58:51.576Z,5.23
2019-04-21T13:01:25.259Z,5.70
2019-04-21T13:04:00.225Z,5.47
2019-04-21T13:06:33.942Z,5.77
2019-04-21T13:09:12.713Z,5.27
2019-04-21T13:11:44.647Z,5.20
2019-04-21T13:14:18.307Z,5.37
2019-04-21T13:16:53.247Z,5.63
2019-04-21T13:19:29.278Z,5.77
2019-04-21T13:22:05.743Z,5.30
2019-04-21T13:24:42.117Z,5.90
2019-04-21T13:27:20.536Z,5.70
2019-04-21T13:29:56.532Z,5.77
2019-04-21T13:32:31.176Z,6.43
2019-04-21T13:35:05.402Z,5.43
2019-04-21T13:37:41.514Z,5.90
2019-04-21T13:40:57.007Z,5.57
2019-04-21T13:43:20.951Z,5.97
2019-04-21T13:45:57.732Z,5.53
2019-04-21T13:48:32.659Z,5.90
2019-04-21T13:51:07.140Z,5.73
2019-04-21T13:53:41.867Z,5.23
2019-04-21T13:56:16.402Z,5.63
2019-04-21T13:58:52.629Z,5.30
2019-04-21T14:01:27.649Z,5.80
2019-04-21T14:04:05.186Z,5.33
2019-04-21T14:06:42.155Z,4.30
2019-04-21T14:09:17.868Z,5.30
2019-04-21T14:11:54.090Z,4.83
2019-04-21T14:14:28.375Z,4.63
2019-04-21T14:17:05.116Z,5.03
2019-04-21T14:19:37.767Z,5.80
2019-04-21T14:22:13.922Z,5.50
2019-04-21T14:24:48.050Z,6.60
2019-04-21T14:27:22.199Z,5.40
2019-04-21T14:29:55.834Z,6.20
2019-04-21T14:32:29.948Z,6.97
2019-04-21T14:35:04.857Z,5.47
2019-04-21T14:37:38.657Z,5.90
2019-04-21T14:40:20.125Z,5.47
2019-04-21T14:42:51.989Z,5.90
2019-04-21T14:45:48.634Z,5.70
2019-04-21T14:48:41.577Z,5.67
2019-04-21T14:51:47.468Z,5.80
2019-04-21T14:54:42.630Z,5.77
2019-04-21T14:57:21.241Z,5.20
2019-04-21T14:59:55.197Z,6.50
2019-04-21T15:02:29.866Z,5.10
2019-04-21T15:05:04.089Z,5.30
2019-04-21T15:07:39.300Z,5.63
2019-04-21T15:10:19.063Z,5.30
2019-04-21T15:12:50.118Z,4.87
2019-04-21T15:15:23.787Z,4.67
2019-04-21T15:17:57.939Z,5.00
2019-04-21T15:20:31.568Z,4.07
2019-04-21T15:23:06.295Z,4.63
2019-04-21T15:25:40.068Z,4.83
2019-04-21T15:28:15.902Z,5.20
2019-04-21T15:30:50.443Z,5.23
2019-04-21T15:33:26.465Z,4.13
2019-04-21T15:36:00.822Z,4.23
2019-04-21T15:38:35.801Z,4.60
2019-04-21T15:41:10.875Z,5.23
2019-04-21T15:43:46.737Z,4.43
2019-04-21T15:46:20.589Z,5.10
2019-04-21T15:48:55.150Z,5.10
2019-04-21T15:51:29.650Z,4.70
2019-04-21T15:54:04.901Z,4.63
2019-04-21T15:57:02.772Z,4.93
2019-04-21T16:00:04.667Z,4.87
2019-04-21T16:02:40.545Z,7.27
2019-04-21T16:05:16.910Z,6.47
2019-04-21T16:07:52.013Z,9.53
2019-04-21T16:10:34.625Z,6.00
2019-04-21T16:13:01.706Z,6.53
2019-04-21T16:15:36.558Z,5.27
2019-04-21T16:18:10.432Z,5.50
2019-04-21T16:20:44.032Z,5.83
2019-04-21T16:23:18.281Z,5.63
2019-04-21T16:25:52.755Z,5.33
2019-04-21T16:28:27.020Z,4.93
2019-04-21T16:31:04.677Z,5.20
2019-04-21T16:33:40.958Z,6.20
2019-04-21T16:36:18.096Z,4.50
2019-04-21T16:38:53.463Z,4.70
2019-04-21T16:41:28.544Z,5.20
2019-04-21T16:44:02.995Z,3.63
2019-04-21T16:46:37.746Z,4.87
2019-04-21T16:49:11.810Z,4.73
2019-04-21T16:51:47.543Z,5.20
2019-04-21T16:54:28.244Z,4.13
2019-04-21T16:57:13.798Z,4.53
2019-04-21T16:59:52.664Z,4.10
2019-04-21T17:02:28.392Z,4.00
2019-04-21T17:05:04.652Z,3.57
2019-04-21T17:07:38.882Z,3.30
2019-04-21T17:10:12.888Z,3.60
2019-04-21T17:12:48.009Z,3.73
2019-04-21T17:15:40.758Z,3.33
2019-04-21T17:18:20.827Z,3.83
2019-04-21T17:20:45.048Z,4.17
2019-04-21T17:23:11.488Z,3.40
2019-04-21T17:25:45.386Z,3.87
2019-04-21T17:28:19.612Z,3.87
2019-04-21T17:30:54.621Z,3.40
2019-04-21T17:33:30.202Z,3.13
2019-04-21T17:36:04.990Z,3.10
2019-04-21T17:38:39.880Z,3.27
2019-04-21T17:41:25.003Z,2.83
2019-04-21T17:43:49.938Z,3.03
2019-04-21T17:46:33.303Z,2.73
2019-04-21T17:49:01.017Z,2.70
2019-04-21T17:52:01.783Z,2.50
2019-04-21T17:54:43.608Z,3.20
2019-04-21T17:57:33.459Z,2.73
2019-04-21T18:00:14.076Z,3.13
2019-04-21T18:02:51.763Z,3.13
2019-04-21T18:05:28.991Z,3.07
2019-04-21T18:07:54.378Z,2.80
2019-04-21T18:10:34.795Z,2.47
2019-04-21T18:13:03.729Z,2.93
2019-04-21T18:15:50.695Z,2.53
2019-04-21T18:18:06.458Z,2.60
2019-04-21T18:20:46.250Z,2.90
2019-04-21T18:23:39.461Z,2.80
2019-04-21T18:26:08.170Z,2.30
2019-04-21T18:28:38.784Z,2.50
2019-04-21T18:31:16.532Z,2.53
2019-04-21T18:34:13.810Z,2.50
2019-04-21T18:36:51.710Z,6.23
2019-04-21T18:39:48.612Z,5.73
2019-04-21T18:42:32.783Z,3.27
2019-04-21T18:48:19.068Z,3.80
2019-04-21T18:51:18.953Z,2.80
2019-04-21T18:54:17.373Z,2.50
2019-04-21T18:56:33.748Z,2.83
2019-04-21T18:59:08.871Z,4.33
2019-04-21T19:01:51.447Z,7.37
2019-04-21T19:04:22.528Z,3.93
2019-04-21T19:07:06.701Z,3.47
2019-04-21T19:10:14.868Z,5.10
2019-04-21T19:12:35.150Z,5.63
2019-04-21T19:14:59.329Z,26.93
2019-04-21T19:22:47.194Z,11.93
2019-04-21T19:25:25.279Z,9.00
2019-04-21T19:28:04.625Z,11.60
2019-04-21T19:30:49.341Z,8.23
2019-04-21T19:33:22.062Z,6.63
2019-04-21T19:35:39.342Z,6.67
2019-04-21T19:38:16.195Z,4.67
2019-04-21T19:41:05.332Z,6.10
2019-04-21T19:43:49.275Z,6.20
2019-04-21T19:46:19.335Z,5.50
2019-04-21T19:49:05.495Z,6.47
2019-04-21T19:51:26.416Z,5.73
2019-04-21T19:54:00.794Z,8.80
2019-04-21T19:56:25.854Z,7.50
2019-04-21T19:59:01.171Z,7.40
2019-04-21T20:01:35.194Z,13.50
2019-04-21T20:04:10.424Z,19.30
2019-04-21T20:07:00.666Z,24.63
2019-04-21T20:09:39.606Z,19.67
2019-04-21T20:12:09.339Z,21.40
2019-04-21T20:14:55.750Z,10.53
2019-04-21T20:17:24.411Z,11.20
2019-04-21T20:19:45.024Z,61.10
2019-04-21T20:22:18.943Z,15.30
2019-04-21T20:25:00.181Z,55.40
2019-04-21T20:27:39.036Z,60.40
2019-04-21T20:30:29.770Z,32.07
2019-04-21T20:33:05.821Z,33.53
2019-04-21T20:35:45.096Z,32.27
2019-04-21T20:38:12.529Z,19.20
2019-04-21T20:40:45.347Z,9.80
2019-04-21T20:43:30.704Z,8.70
2019-04-21T20:46:06.143Z,8.00
2019-04-21T20:48:40.109Z,5.03
2019-04-21T20:51:18.570Z,5.40
2019-04-21T20:53:47.803Z,4.63
2019-04-21T20:56:19.324Z,5.33
2019-04-21T20:58:59.791Z,4.40
2019-04-21T21:01:39.402Z,4.50
2019-04-21T21:04:13.796Z,5.07
2019-04-21T21:06:54.114Z,4.80
2019-04-21T21:09:23.089Z,4.80
2019-04-21T21:12:18.254Z,4.67
2019-04-21T21:14:40.760Z,5.00
2019-04-21T21:17:36.112Z,4.83
2019-04-21T21:19:55.797Z,5.30
2019-04-21T21:22:22.789Z,5.00
2019-04-21T21:25:02.990Z,4.90
2019-04-21T21:27:38.351Z,5.30
2019-04-21T21:30:08.320Z,5.30
2019-04-21T21:32:52.428Z,5.10
2019-04-21T21:35:21.878Z,5.47
2019-04-21T21:38:06.728Z,5.70
2019-04-21T21:40:38.188Z,5.73
2019-04-21T21:43:01.555Z,5.90
2019-04-21T21:45:41.507Z,5.70
2019-04-21T21:48:26.434Z,6.10
2019-04-21T21:50:56.639Z,5.90
2019-04-21T21:53:26.998Z,6.20
2019-04-21T21:56:00.727Z,6.03
2019-04-21T21:58:41.917Z,6.43
2019-04-21T22:01:16.703Z,6.70
2019-04-21T22:03:59.199Z,6.20
2019-04-21T22:06:38.691Z,6.73
2019-04-21T22:09:01.702Z,6.60
2019-04-21T22:11:35.887Z,5.87
2019-04-21T22:14:17.146Z,6.40
2019-04-21T22:17:07.682Z,6.00
2019-04-21T22:19:41.629Z,6.13
2019-04-21T22:22:21.051Z,6.40
2019-04-21T22:24:49.316Z,6.13
2019-04-21T22:27:14.902Z,5.73
2019-04-21T22:29:53.513Z,6.47
2019-04-21T22:32:28.633Z,6.17
2019-04-21T22:35:04.810Z,6.13
2019-04-21T22:37:48.772Z,7.13
2019-04-21T22:40:23.997Z,6.87
2019-04-21T22:42:59.458Z,7.63
2019-04-21T22:45:25.141Z,7.90
2019-04-21T22:48:07.501Z,7.97
2019-04-21T22:50:38.375Z,7.80
2019-04-21T22:53:13.815Z,7.57
2019-04-21T22:55:49.602Z,7.40
2019-04-21T22:58:29.339Z,7.80
2019-04-21T23:01:01.856Z,7.30
2019-04-21T23:03:35.767Z,7.60
2019-04-21T23:06:17.917Z,7.37
2019-04-21T23:08:48.114Z,9.50
2019-04-21T23:11:23.540Z,8.47
2019-04-21T23:14:04.008Z,7.50
2019-04-21T23:16:38.443Z,7.70
2019-04-21T23:19:31.164Z,6.83
2019-04-21T23:22:04.151Z,6.97
2019-04-21T23:24:45.545Z,6.77
2019-04-21T23:27:15.573Z,6.60
2019-04-21T23:29:58.867Z,7.23
2019-04-21T23:32:23.899Z,6.77
2019-04-21T23:34:49.161Z,6.27
2019-04-21T23:37:27.178Z,6.13
2019-04-21T23:40:07.573Z,6.80
2019-04-21T23:42:41.559Z,6.23
2019-04-21T23:45:17.691Z,7.60
2019-04-21T23:48:05.004Z,8.33
2019-04-21T23:50:37.838Z,9.03
2019-04-21T23:53:01.800Z,8.60
2019-04-21T23:55:37.088Z,9.53
2019-04-21T23:58:16.385Z,7.33
